createdAt,value
2023-03-30T00:00:48.209Z,9.98
2023-03-30T00:04:53.069Z,7.88
2023-03-30T00:08:58.205Z,10.10
2023-03-30T00:13:03.041Z,7.70
2023-03-30T00:17:07.280Z,16.00
2023-03-30T00:21:11.515Z,7.95
2023-03-30T00:25:16.352Z,13.13
2023-03-30T00:29:21.365Z,9.10
2023-03-30T00:33:37.236Z,10.65
2023-03-30T00:37:49.936Z,9.60
2023-03-30T00:41:52.953Z,10.25
2023-03-30T00:45:59.179Z,12.20
2023-03-30T00:50:02.390Z,13.15
2023-03-30T00:54:12.589Z,19.75
2023-03-30T00:58:17.950Z,10.77
2023-03-30T01:02:23.887Z,16.88
2023-03-30T01:06:30.290Z,14.48
2023-03-30T01:10:33.617Z,9.75
2023-03-30T01:14:37.279Z,6.78
2023-03-30T01:18:56.035Z,13.98
2023-03-30T01:23:19.680Z,11.02
2023-03-30T01:27:51.447Z,11.85
2023-03-30T01:32:17.116Z,10.02
2023-03-30T01:37:01.698Z,11.07
2023-03-30T01:41:14.445Z,14.88
2023-03-30T01:45:29.534Z,15.98
2023-03-30T01:49:41.221Z,12.15
2023-03-30T01:53:51.409Z,12.38
2023-03-30T01:58:01.867Z,11.15
2023-03-30T02:02:07.638Z,14.43
2023-03-30T02:06:18.693Z,15.60
2023-03-30T02:10:25.323Z,21.92
2023-03-30T02:14:34.671Z,16.10
2023-03-30T02:18:39.126Z,10.88
2023-03-30T02:22:42.773Z,15.70
2023-03-30T02:26:47.381Z,12.07
2023-03-30T02:30:51.720Z,13.10
2023-03-30T02:35:19.150Z,13.45
2023-03-30T02:39:29.887Z,14.23
2023-03-30T02:43:43.216Z,11.70
2023-03-30T02:47:57.761Z,7.47
2023-03-30T02:52:10.669Z,9.18
2023-03-30T03:00:27.111Z,11.13
2023-03-30T03:04:34.225Z,6.03
2023-03-30T03:08:41.437Z,11.43
2023-03-30T03:12:46.874Z,8.93
2023-03-30T03:16:50.412Z,10.80
2023-03-30T03:20:54.666Z,11.57
2023-03-30T03:24:57.925Z,12.68
2023-03-30T03:29:00.884Z,10.32
2023-03-30T03:33:04.515Z,8.57
2023-03-30T03:37:09.136Z,10.85
2023-03-30T03:41:12.961Z,12.10
2023-03-30T03:45:15.905Z,15.52
2023-03-30T03:49:18.956Z,12.57
2023-03-30T03:53:24.179Z,7.60
2023-03-30T03:57:28.079Z,13.68
2023-03-30T04:01:31.607Z,15.40
2023-03-30T04:05:35.337Z,10.45
2023-03-30T04:09:39.782Z,10.07
2023-03-30T04:13:43.121Z,14.30
2023-03-30T04:17:49.959Z,15.05
2023-03-30T04:21:53.375Z,11.40
2023-03-30T04:25:58.188Z,11.95
2023-03-30T04:30:02.926Z,15.25
2023-03-30T04:34:06.055Z,14.10
2023-03-30T04:38:09.294Z,11.55
2023-03-30T04:42:15.646Z,9.90
2023-03-30T04:46:19.838Z,10.38
2023-03-30T04:50:22.891Z,17.60
2023-03-30T04:54:26.149Z,13.00
2023-03-30T04:58:30.668Z,19.00
2023-03-30T05:02:33.893Z,9.98
2023-03-30T05:06:36.923Z,10.82
2023-03-30T05:10:40.088Z,14.07
2023-03-30T05:14:44.380Z,9.35
2023-03-30T05:18:49.423Z,11.70
2023-03-30T05:22:54.642Z,11.65
2023-03-30T05:26:58.573Z,16.10
2023-03-30T05:31:03.309Z,13.23
2023-03-30T05:35:07.850Z,12.85
2023-03-30T05:39:10.907Z,16.02
2023-03-30T05:43:15.717Z,14.13
2023-03-30T05:47:22.111Z,13.30
2023-03-30T05:51:26.156Z,13.82
2023-03-30T05:55:29.762Z,13.10
2023-03-30T05:59:33.700Z,11.20
2023-03-30T06:03:39.310Z,13.10
2023-03-30T06:07:42.911Z,14.02
2023-03-30T06:11:45.986Z,12.52
2023-03-30T06:15:50.028Z,15.45
2023-03-30T06:19:54.455Z,17.02
2023-03-30T06:23:57.586Z,13.25
2023-03-30T06:28:00.939Z,12.88
2023-03-30T06:32:05.220Z,12.30
2023-03-30T06:36:14.509Z,11.48
2023-03-30T06:40:18.072Z,12.32
2023-03-30T06:44:21.306Z,9.52
2023-03-30T06:48:25.698Z,12.85
2023-03-30T06:52:30.858Z,15.80
2023-03-30T06:56:34.023Z,11.07
2023-03-30T07:00:37.399Z,11.88
2023-03-30T07:04:40.852Z,12.48
2023-03-30T07:08:45.289Z,12.50
2023-03-30T07:12:48.862Z,15.25
2023-03-30T07:16:53.198Z,10.48
2023-03-30T07:21:01.672Z,10.20
2023-03-30T07:25:07.631Z,10.02
2023-03-30T07:29:10.829Z,8.68
2023-03-30T07:33:14.893Z,8.43
2023-03-30T07:37:20.427Z,15.35
2023-03-30T07:41:25.294Z,11.07
2023-03-30T07:45:29.453Z,10.52
2023-03-30T07:49:32.848Z,13.43
2023-03-30T07:53:37.754Z,13.77
2023-03-30T07:57:42.367Z,10.00
2023-03-30T08:01:45.664Z,11.88
2023-03-30T08:05:54.033Z,8.65
2023-03-30T08:09:57.586Z,12.50
2023-03-30T08:14:02.004Z,11.52
2023-03-30T08:18:08.497Z,10.55
2023-03-30T08:22:11.489Z,13.35
2023-03-30T08:26:15.178Z,14.63
2023-03-30T08:30:19.549Z,9.50
2023-03-30T08:34:22.698Z,11.30
2023-03-30T08:38:25.910Z,13.63
2023-03-30T08:43:05.316Z,11.77
2023-03-30T08:47:14.777Z,12.18
2023-03-30T08:51:25.396Z,12.65
2023-03-30T08:55:33.654Z,16.83
2023-03-30T08:59:45.050Z,15.07
2023-03-30T09:04:03.460Z,16.90
2023-03-30T09:08:13.789Z,20.00
2023-03-30T09:12:23.835Z,18.90
2023-03-30T09:16:37.116Z,14.90
2023-03-30T09:20:45.555Z,16.20
2023-03-30T09:24:52.156Z,13.02
2023-03-30T09:29:03.780Z,15.38
2023-03-30T09:33:16.047Z,12.48
2023-03-30T09:37:21.859Z,15.05
2023-03-30T09:41:48.672Z,18.30
2023-03-30T09:45:52.673Z,13.05
2023-03-30T09:50:00.700Z,11.40
2023-03-30T09:54:07.358Z,20.90
2023-03-30T09:58:19.351Z,18.77
2023-03-30T10:02:22.933Z,13.88
2023-03-30T10:06:26.306Z,12.68
2023-03-30T10:10:35.201Z,14.93
2023-03-30T10:14:38.832Z,12.45
2023-03-30T10:18:43.882Z,11.23
2023-03-30T10:22:52.877Z,10.57
2023-03-30T10:27:00.886Z,10.63
2023-03-30T10:31:07.021Z,18.13
2023-03-30T10:35:11.702Z,15.20
2023-03-30T10:39:19.375Z,12.45
2023-03-30T10:43:29.145Z,15.90
2023-03-30T10:47:52.748Z,9.48
2023-03-30T10:52:05.423Z,8.13
2023-03-30T10:56:18.385Z,10.73
2023-03-30T11:00:49.887Z,8.80
2023-03-30T11:05:03.059Z,13.05
2023-03-30T11:09:11.092Z,10.13
2023-03-30T11:13:19.419Z,6.57
2023-03-30T11:17:30.571Z,8.50
2023-03-30T11:21:39.347Z,10.55
2023-03-30T11:25:54.644Z,16.33
2023-03-30T11:30:05.448Z,8.50
2023-03-30T11:34:20.514Z,9.98
2023-03-30T11:38:30.664Z,10.45
2023-03-30T11:42:33.864Z,9.13
2023-03-30T11:46:42.642Z,9.88
2023-03-30T11:51:01.466Z,8.50
2023-03-30T11:55:28.405Z,9.40
2023-03-30T11:59:45.229Z,8.73
2023-03-30T12:03:54.894Z,7.72
2023-03-30T12:08:09.724Z,7.35
2023-03-30T12:12:16.419Z,11.48
2023-03-30T12:16:28.201Z,12.13
2023-03-30T12:20:39.513Z,10.00
2023-03-30T12:24:52.141Z,8.48
2023-03-30T12:33:28.854Z,10.77
2023-03-30T12:37:35.348Z,10.82
2023-03-30T12:41:48.758Z,11.40
2023-03-30T12:46:05.298Z,9.55
2023-03-30T12:50:18.115Z,9.45
2023-03-30T12:54:38.448Z,8.55
2023-03-30T12:58:59.714Z,10.45
2023-03-30T13:03:28.336Z,8.13
2023-03-30T13:07:36.651Z,5.90
2023-03-30T13:11:50.423Z,6.03
2023-03-30T13:15:58.648Z,9.23
2023-03-30T13:20:29.250Z,6.97
2023-03-30T13:24:44.971Z,7.85
2023-03-30T13:29:01.368Z,6.93
2023-03-30T13:33:20.311Z,10.60
2023-03-30T13:37:29.434Z,10.48
2023-03-30T13:41:42.215Z,9.70
2023-03-30T13:45:51.684Z,8.02
2023-03-30T13:50:00.780Z,10.38
2023-03-30T13:54:09.336Z,11.95
2023-03-30T13:58:17.900Z,8.40
2023-03-30T14:02:26.142Z,9.80
2023-03-30T14:06:34.470Z,14.07
2023-03-30T14:10:38.209Z,17.67
2023-03-30T14:14:47.166Z,11.95
2023-03-30T14:18:51.202Z,14.85
2023-03-30T14:22:58.517Z,13.38
2023-03-30T14:27:07.151Z,10.30
2023-03-30T14:31:15.014Z,17.55
2023-03-30T14:35:19.752Z,11.38
2023-03-30T14:39:25.408Z,8.27
2023-03-30T14:43:32.742Z,4.88
2023-03-30T14:47:36.551Z,4.70
2023-03-30T14:51:43.166Z,4.00
2023-03-30T14:55:48.466Z,11.75
2023-03-30T14:59:54.485Z,6.50
2023-03-30T15:03:58.545Z,8.75
2023-03-30T15:08:04.572Z,6.70
2023-03-30T15:12:09.647Z,2.67
2023-03-30T15:16:16.903Z,4.03
2023-03-30T15:20:20.497Z,5.45
2023-03-30T15:24:28.220Z,2.83
2023-03-30T15:28:36.492Z,2.95
2023-03-30T15:32:41.929Z,4.57
2023-03-30T15:36:45.668Z,2.65
2023-03-30T15:40:53.154Z,3.17
2023-03-30T15:45:05.211Z,5.78
2023-03-30T15:49:08.880Z,4.40
2023-03-30T15:53:18.993Z,1.10
2023-03-30T15:57:25.420Z,4.22
2023-03-30T16:09:37.350Z,3.70
2023-03-30T16:13:45.826Z,6.78
2023-03-30T16:17:49.022Z,3.40
2023-03-30T16:21:53.846Z,3.70
2023-03-30T16:25:58.327Z,9.32
2023-03-30T16:30:01.502Z,2.13
2023-03-30T16:34:04.410Z,6.65
2023-03-30T16:38:09.062Z,2.08
2023-03-30T16:42:12.030Z,4.15
2023-03-30T16:46:16.425Z,1.63
2023-03-30T16:50:23.174Z,15.25
2023-03-30T16:54:32.412Z,2.92
2023-03-30T16:58:36.368Z,2.85
2023-03-30T17:02:39.825Z,5.53
2023-03-30T17:06:43.155Z,2.33
2023-03-30T17:10:47.844Z,2.05
2023-03-30T17:14:50.840Z,1.45
2023-03-30T17:18:54.021Z,0.90
2023-03-30T17:22:57.090Z,1.38
2023-03-30T17:27:02.113Z,3.80
2023-03-30T17:31:09.862Z,2.28
2023-03-30T17:35:14.648Z,2.40
2023-03-30T17:39:17.638Z,1.23
2023-03-30T17:43:22.358Z,2.20
2023-03-30T17:47:25.551Z,1.70
2023-03-30T17:51:28.736Z,1.45
2023-03-30T17:55:33.783Z,3.47
2023-03-30T17:59:41.398Z,2.88
2023-03-30T18:03:44.788Z,1.20
2023-03-30T18:07:48.947Z,1.60
2023-03-30T18:11:51.855Z,1.90
2023-03-30T18:15:58.063Z,0.82
2023-03-30T18:20:01.597Z,2.70
2023-03-30T18:24:05.458Z,1.65
2023-03-30T18:28:16.995Z,3.30
2023-03-30T18:32:22.004Z,5.53
2023-03-30T18:36:25.228Z,3.30
2023-03-30T18:40:32.794Z,2.80
2023-03-30T18:44:36.921Z,2.10
2023-03-30T18:48:41.917Z,7.05
2023-03-30T18:52:45.113Z,3.55
2023-03-30T18:56:50.026Z,5.97
2023-03-30T19:00:54.484Z,3.30
2023-03-30T19:05:00.114Z,4.95
2023-03-30T19:09:02.984Z,4.28
2023-03-30T19:13:07.340Z,6.65
2023-03-30T19:17:10.326Z,2.90
2023-03-30T19:21:17.005Z,6.20
2023-03-30T19:25:21.779Z,6.38
2023-03-30T19:29:25.071Z,5.07
2023-03-30T19:37:32.858Z,5.60
2023-03-30T19:41:35.933Z,3.45
2023-03-30T19:45:39.701Z,4.82
2023-03-30T19:49:42.639Z,3.55
2023-03-30T19:53:47.790Z,4.63
2023-03-30T19:57:51.044Z,2.08
2023-03-30T20:01:54.037Z,2.97
2023-03-30T20:05:57.880Z,0.68
2023-03-30T20:10:02.669Z,2.10
2023-03-30T20:14:06.315Z,3.22
2023-03-30T20:18:09.917Z,1.55
2023-03-30T20:22:12.902Z,2.67
2023-03-30T20:26:19.737Z,1.90
2023-03-30T20:30:22.937Z,1.67
2023-03-30T20:34:27.623Z,2.75
2023-03-30T20:38:30.521Z,1.48
2023-03-30T20:42:35.042Z,0.80
2023-03-30T20:46:38.425Z,1.40
2023-03-30T20:50:43.087Z,2.70
2023-03-30T20:54:48.885Z,3.85
2023-03-30T20:58:53.396Z,0.60
2023-03-30T21:02:56.579Z,1.58
2023-03-30T21:07:00.120Z,2.95
2023-03-30T21:11:03.828Z,0.95
2023-03-30T21:15:09.955Z,3.33
2023-03-30T21:19:13.607Z,2.58
2023-03-30T21:23:16.949Z,1.63
2023-03-30T21:27:19.880Z,3.50
2023-03-30T21:31:25.275Z,4.50
2023-03-30T21:35:28.199Z,3.13
2023-03-30T21:39:31.360Z,4.63
2023-03-30T21:43:36.877Z,1.08
2023-03-30T21:47:42.084Z,1.55
2023-03-30T21:51:45.066Z,2.47
2023-03-30T21:55:48.663Z,1.20
2023-03-30T21:59:51.609Z,2.85
2023-03-30T22:03:56.975Z,3.13
2023-03-30T22:08:00.285Z,1.98
2023-03-30T22:12:04.020Z,2.22
2023-03-30T22:16:09.740Z,2.85
2023-03-30T22:20:14.811Z,1.60
2023-03-30T22:24:18.425Z,2.63
2023-03-30T22:28:22.835Z,1.00
2023-03-30T22:32:26.039Z,3.35
2023-03-30T22:36:32.431Z,2.17
2023-03-30T22:40:36.791Z,1.23
2023-03-30T22:44:39.973Z,2.20
2023-03-30T22:48:45.327Z,0.90
2023-03-30T22:52:49.811Z,1.67
2023-03-30T22:56:52.857Z,2.85
2023-03-30T23:01:01.315Z,3.63
2023-03-30T23:05:04.636Z,3.67
2023-03-30T23:09:10.060Z,3.20
2023-03-30T23:13:14.082Z,4.43
2023-03-30T23:17:17.639Z,3.65
2023-03-30T23:21:22.408Z,4.38
2023-03-30T23:25:27.090Z,7.72
2023-03-30T23:29:30.628Z,4.45
2023-03-30T23:33:33.843Z,4.45
2023-03-30T23:37:37.054Z,3.42
2023-03-30T23:41:41.883Z,9.70
2023-03-30T23:45:45.077Z,2.15
2023-03-30T23:49:48.416Z,2.60
2023-03-30T23:53:54.582Z,2.83
2023-03-30T23:57:59.776Z,1.85
